sensor_id;sensor_type;location;lat;lon;timestamp;temperature;humidity
73586;DHT22;61865;50.232;18.614;2022-12-18T00:01:32;-2.00;99.90
73586;DHT22;61865;50.232;18.614;2022-12-18T00:03:55;-1.90;99.90
73586;DHT22;61865;50.232;18.614;2022-12-18T00:06:19;-1.90;99.90
73586;DHT22;61865;50.232;18.614;2022-12-18T00:08:41;-1.70;99.90
73586;DHT22;61865;50.232;18.614;2022-12-18T00:11:04;-1.70;99.90
73586;DHT22;61865;50.232;18.614;2022-12-18T00:13:27;-1.90;99.90
73586;DHT22;61865;50.232;18.614;2022-12-18T00:15:49;-2.10;99.90
73586;DHT22;61865;50.232;18.614;2022-12-18T00:18:11;-2.00;99.90
73586;DHT22;61865;50.232;18.614;2022-12-18T00:20:36;-2.00;99.90
73586;DHT22;61865;50.232;18.614;2022-12-18T00:23:00;-2.00;99.90
73586;DHT22;61865;50.232;18.614;2022-12-18T00:25:22;-2.00;99.90
73586;DHT22;61865;50.232;18.614;2022-12-18T00:27:44;-1.90;99.90
73586;DHT22;61865;50.232;18.614;2022-12-18T00:30:06;-1.80;99.90
73586;DHT22;61865;50.232;18.614;2022-12-18T00:32:28;-1.80;99.90
73586;DHT22;61865;50.232;18.614;2022-12-18T00:34:50;-1.90;99.90
73586;DHT22;61865;50.232;18.614;2022-12-18T00:37:12;-1.70;99.90
73586;DHT22;61865;50.232;18.614;2022-12-18T00:39:35;-1.60;99.90
73586;DHT22;61865;50.232;18.614;2022-12-18T00:41:57;-1.60;99.90
73586;DHT22;61865;50.232;18.614;2022-12-18T00:44:51;-1.60;99.90
73586;DHT22;61865;50.232;18.614;2022-12-18T00:47:13;-1.80;99.90
73586;DHT22;61865;50.232;18.614;2022-12-18T00:49:35;-1.90;99.90
73586;DHT22;61865;50.232;18.614;2022-12-18T00:51:57;-1.90;99.90
73586;DHT22;61865;50.232;18.614;2022-12-18T00:54:19;-1.70;99.90
73586;DHT22;61865;50.232;18.614;2022-12-18T00:56:42;-1.70;99.90
73586;DHT22;61865;50.232;18.614;2022-12-18T00:59:04;-1.80;99.90
73586;DHT22;61865;50.232;18.614;2022-12-18T01:01:26;-1.80;99.90
73586;DHT22;61865;50.232;18.614;2022-12-18T01:03:48;-1.70;99.90
73586;DHT22;61865;50.232;18.614;2022-12-18T01:06:13;-1.90;99.90
73586;DHT22;61865;50.232;18.614;2022-12-18T01:08:36;-2.00;99.90
73586;DHT22;61865;50.232;18.614;2022-12-18T01:10:57;-1.90;99.90
73586;DHT22;61865;50.232;18.614;2022-12-18T01:13:21;-1.70;99.90
73586;DHT22;61865;50.232;18.614;2022-12-18T01:15:48;-1.60;99.90
73586;DHT22;61865;50.232;18.614;2022-12-18T01:18:10;-1.60;99.90
73586;DHT22;61865;50.232;18.614;2022-12-18T01:20:32;-1.50;99.90
73586;DHT22;61865;50.232;18.614;2022-12-18T01:22:54;-1.80;99.90
73586;DHT22;61865;50.232;18.614;2022-12-18T01:25:16;-1.90;99.90
73586;DHT22;61865;50.232;18.614;2022-12-18T01:27:38;-1.80;99.90
73586;DHT22;61865;50.232;18.614;2022-12-18T01:30:01;-1.60;99.90
73586;DHT22;61865;50.232;18.614;2022-12-18T01:32:24;-1.60;99.90
73586;DHT22;61865;50.232;18.614;2022-12-18T01:34:46;-1.60;99.90
73586;DHT22;61865;50.232;18.614;2022-12-18T01:37:08;-1.50;99.90
73586;DHT22;61865;50.232;18.614;2022-12-18T01:39:30;-1.40;99.90
73586;DHT22;61865;50.232;18.614;2022-12-18T01:41:52;-1.50;99.90
73586;DHT22;61865;50.232;18.614;2022-12-18T01:44:54;-1.50;99.90
73586;DHT22;61865;50.232;18.614;2022-12-18T01:47:23;-1.30;99.90
73586;DHT22;61865;50.232;18.614;2022-12-18T01:49:45;-1.40;99.90
73586;DHT22;61865;50.232;18.614;2022-12-18T01:52:07;-1.50;99.90
73586;DHT22;61865;50.232;18.614;2022-12-18T01:54:29;-1.40;99.90
73586;DHT22;61865;50.232;18.614;2022-12-18T01:56:51;-1.30;99.90
73586;DHT22;61865;50.232;18.614;2022-12-18T01:59:13;-1.10;99.90
73586;DHT22;61865;50.232;18.614;2022-12-18T02:01:36;-1.20;99.90
73586;DHT22;61865;50.232;18.614;2022-12-18T02:06:50;-1.10;99.90
73586;DHT22;61865;50.232;18.614;2022-12-18T02:09:16;-1.10;99.90
73586;DHT22;61865;50.232;18.614;2022-12-18T02:11:44;-1.10;99.90
73586;DHT22;61865;50.232;18.614;2022-12-18T02:14:21;-1.20;99.90
73586;DHT22;61865;50.232;18.614;2022-12-18T02:16:50;-1.40;99.90
73586;DHT22;61865;50.232;18.614;2022-12-18T02:19:27;-1.60;99.90
73586;DHT22;61865;50.232;18.614;2022-12-18T02:22:06;-1.60;99.90
73586;DHT22;61865;50.232;18.614;2022-12-18T02:24:37;-1.40;99.90
73586;DHT22;61865;50.232;18.614;2022-12-18T02:27:06;-1.50;99.90
73586;DHT22;61865;50.232;18.614;2022-12-18T02:29:32;-1.50;99.90
73586;DHT22;61865;50.232;18.614;2022-12-18T02:31:58;-1.50;99.90
73586;DHT22;61865;50.232;18.614;2022-12-18T02:34:21;-1.50;99.90
73586;DHT22;61865;50.232;18.614;2022-12-18T02:36:46;-1.40;99.90
73586;DHT22;61865;50.232;18.614;2022-12-18T02:39:11;-1.50;99.90
73586;DHT22;61865;50.232;18.614;2022-12-18T02:41:34;-1.40;99.90
73586;DHT22;61865;50.232;18.614;2022-12-18T02:44:02;-1.40;99.90
73586;DHT22;61865;50.232;18.614;2022-12-18T02:46:32;-1.40;99.90
73586;DHT22;61865;50.232;18.614;2022-12-18T02:49:00;-1.50;99.90
73586;DHT22;61865;50.232;18.614;2022-12-18T02:51:29;-1.40;99.90
73586;DHT22;61865;50.232;18.614;2022-12-18T02:53:55;-1.30;99.90
73586;DHT22;61865;50.232;18.614;2022-12-18T02:56:22;-1.30;99.90
73586;DHT22;61865;50.232;18.614;2022-12-18T02:58:55;-1.20;99.90
73586;DHT22;61865;50.232;18.614;2022-12-18T03:01:25;-1.20;99.90
73586;DHT22;61865;50.232;18.614;2022-12-18T03:03:53;-1.30;99.90
73586;DHT22;61865;50.232;18.614;2022-12-18T03:06:23;-1.30;99.90
73586;DHT22;61865;50.232;18.614;2022-12-18T03:08:49;-1.30;99.90
73586;DHT22;61865;50.232;18.614;2022-12-18T03:11:13;-1.40;99.90
73586;DHT22;61865;50.232;18.614;2022-12-18T03:13:38;-1.50;99.90
73586;DHT22;61865;50.232;18.614;2022-12-18T03:16:02;-1.40;99.90
73586;DHT22;61865;50.232;18.614;2022-12-18T03:18:29;-1.30;99.90
73586;DHT22;61865;50.232;18.614;2022-12-18T03:20:53;-1.40;99.90
73586;DHT22;61865;50.232;18.614;2022-12-18T03:23:20;-1.40;99.90
73586;DHT22;61865;50.232;18.614;2022-12-18T03:25:44;-1.30;99.90
73586;DHT22;61865;50.232;18.614;2022-12-18T03:28:08;-1.40;99.90
73586;DHT22;61865;50.232;18.614;2022-12-18T03:30:33;-1.30;99.90
73586;DHT22;61865;50.232;18.614;2022-12-18T03:33:02;-1.10;99.90
73586;DHT22;61865;50.232;18.614;2022-12-18T03:35:31;-1.10;99.90
73586;DHT22;61865;50.232;18.614;2022-12-18T03:37:53;-1.00;99.90
73586;DHT22;61865;50.232;18.614;2022-12-18T03:40:15;-1.00;99.90
73586;DHT22;61865;50.232;18.614;2022-12-18T03:42:41;-0.90;99.90
73586;DHT22;61865;50.232;18.614;2022-12-18T03:45:09;-1.00;99.90
73586;DHT22;61865;50.232;18.614;2022-12-18T03:47:39;-1.20;99.90
73586;DHT22;61865;50.232;18.614;2022-12-18T03:50:06;-1.30;99.90
73586;DHT22;61865;50.232;18.614;2022-12-18T03:52:36;-1.20;99.90
73586;DHT22;61865;50.232;18.614;2022-12-18T03:55:00;-1.10;99.90
73586;DHT22;61865;50.232;18.614;2022-12-18T03:57:26;-1.00;99.90
73586;DHT22;61865;50.232;18.614;2022-12-18T03:59:51;-1.10;99.90
73586;DHT22;61865;50.232;18.614;2022-12-18T04:02:16;-1.30;99.90
73586;DHT22;61865;50.232;18.614;2022-12-18T04:04:39;-1.20;99.90
73586;DHT22;61865;50.232;18.614;2022-12-18T04:07:02;-1.20;99.90
73586;DHT22;61865;50.232;18.614;2022-12-18T04:09:26;-1.20;99.90
73586;DHT22;61865;50.232;18.614;2022-12-18T04:11:48;-1.20;99.90
73586;DHT22;61865;50.232;18.614;2022-12-18T04:14:10;-1.40;99.90
73586;DHT22;61865;50.232;18.614;2022-12-18T04:16:32;-1.50;99.90
73586;DHT22;61865;50.232;18.614;2022-12-18T04:18:54;-1.60;99.90
73586;DHT22;61865;50.232;18.614;2022-12-18T04:21:16;-1.40;99.90
73586;DHT22;61865;50.232;18.614;2022-12-18T04:23:38;-1.30;99.90
73586;DHT22;61865;50.232;18.614;2022-12-18T04:26:01;-1.10;99.90
73586;DHT22;61865;50.232;18.614;2022-12-18T04:28:23;-1.10;99.90
73586;DHT22;61865;50.232;18.614;2022-12-18T04:30:45;-1.40;99.90
73586;DHT22;61865;50.232;18.614;2022-12-18T04:33:08;-1.40;99.90
73586;DHT22;61865;50.232;18.614;2022-12-18T04:35:30;-1.40;99.90
73586;DHT22;61865;50.232;18.614;2022-12-18T04:37:52;-1.50;99.90
73586;DHT22;61865;50.232;18.614;2022-12-18T04:40:14;-1.50;99.90
73586;DHT22;61865;50.232;18.614;2022-12-18T04:42:38;-1.50;99.90
73586;DHT22;61865;50.232;18.614;2022-12-18T04:45:00;-1.60;99.90
73586;DHT22;61865;50.232;18.614;2022-12-18T04:47:22;-1.50;99.90
73586;DHT22;61865;50.232;18.614;2022-12-18T04:49:44;-1.60;99.90
73586;DHT22;61865;50.232;18.614;2022-12-18T04:52:06;-1.60;99.90
73586;DHT22;61865;50.232;18.614;2022-12-18T04:54:28;-1.40;99.90
73586;DHT22;61865;50.232;18.614;2022-12-18T04:56:50;-1.60;99.90
73586;DHT22;61865;50.232;18.614;2022-12-18T04:59:13;-1.70;99.90
73586;DHT22;61865;50.232;18.614;2022-12-18T05:01:35;-1.80;99.90
73586;DHT22;61865;50.232;18.614;2022-12-18T05:03:57;-1.80;99.90
73586;DHT22;61865;50.232;18.614;2022-12-18T05:06:19;-1.80;99.90
73586;DHT22;61865;50.232;18.614;2022-12-18T05:08:41;-1.70;99.90
73586;DHT22;61865;50.232;18.614;2022-12-18T05:11:05;-1.60;99.90
73586;DHT22;61865;50.232;18.614;2022-12-18T05:13:27;-1.40;99.90
73586;DHT22;61865;50.232;18.614;2022-12-18T05:15:52;-1.40;99.90
73586;DHT22;61865;50.232;18.614;2022-12-18T05:18:14;-1.40;99.90
73586;DHT22;61865;50.232;18.614;2022-12-18T05:20:36;-1.40;99.90
73586;DHT22;61865;50.232;18.614;2022-12-18T05:22:58;-1.40;99.90
73586;DHT22;61865;50.232;18.614;2022-12-18T05:25:21;-1.50;99.90
73586;DHT22;61865;50.232;18.614;2022-12-18T05:27:43;-1.60;99.90
73586;DHT22;61865;50.232;18.614;2022-12-18T05:30:06;-1.70;99.90
73586;DHT22;61865;50.232;18.614;2022-12-18T05:32:30;-1.70;99.90
73586;DHT22;61865;50.232;18.614;2022-12-18T05:34:51;-1.60;99.90
73586;DHT22;61865;50.232;18.614;2022-12-18T05:37:13;-1.40;99.90
73586;DHT22;61865;50.232;18.614;2022-12-18T05:39:35;-1.30;99.90
73586;DHT22;61865;50.232;18.614;2022-12-18T05:41:57;-1.20;99.90
73586;DHT22;61865;50.232;18.614;2022-12-18T05:44:19;-1.30;99.90
73586;DHT22;61865;50.232;18.614;2022-12-18T05:46:41;-1.20;99.90
73586;DHT22;61865;50.232;18.614;2022-12-18T05:49:04;-1.20;99.90
73586;DHT22;61865;50.232;18.614;2022-12-18T05:51:26;-1.10;99.90
73586;DHT22;61865;50.232;18.614;2022-12-18T05:53:48;-1.00;99.90
73586;DHT22;61865;50.232;18.614;2022-12-18T05:56:11;-1.00;99.90
73586;DHT22;61865;50.232;18.614;2022-12-18T05:58:34;-1.10;99.90
73586;DHT22;61865;50.232;18.614;2022-12-18T06:00:56;-1.10;99.90
73586;DHT22;61865;50.232;18.614;2022-12-18T06:03:18;-1.40;99.90
73586;DHT22;61865;50.232;18.614;2022-12-18T06:05:42;-1.50;99.90
73586;DHT22;61865;50.232;18.614;2022-12-18T06:08:05;-1.50;99.90
73586;DHT22;61865;50.232;18.614;2022-12-18T06:10:27;-1.30;99.90
73586;DHT22;61865;50.232;18.614;2022-12-18T06:12:49;-1.20;99.90
73586;DHT22;61865;50.232;18.614;2022-12-18T06:15:11;-1.10;99.90
73586;DHT22;61865;50.232;18.614;2022-12-18T06:17:33;-1.10;99.90
73586;DHT22;61865;50.232;18.614;2022-12-18T06:19:55;-1.10;99.90
73586;DHT22;61865;50.232;18.614;2022-12-18T06:22:18;-1.30;99.90
73586;DHT22;61865;50.232;18.614;2022-12-18T06:24:40;-1.50;99.90
73586;DHT22;61865;50.232;18.614;2022-12-18T06:27:02;-1.70;99.90
73586;DHT22;61865;50.232;18.614;2022-12-18T06:29:24;-1.70;99.90
73586;DHT22;61865;50.232;18.614;2022-12-18T06:31:46;-1.70;99.90
73586;DHT22;61865;50.232;18.614;2022-12-18T06:34:07;-1.60;99.90
73586;DHT22;61865;50.232;18.614;2022-12-18T06:36:29;-1.50;99.90
73586;DHT22;61865;50.232;18.614;2022-12-18T06:38:53;-1.40;99.90
73586;DHT22;61865;50.232;18.614;2022-12-18T06:41:17;-1.60;99.90
73586;DHT22;61865;50.232;18.614;2022-12-18T06:43:39;-1.70;99.90
73586;DHT22;61865;50.232;18.614;2022-12-18T06:46:02;-1.80;99.90
73586;DHT22;61865;50.232;18.614;2022-12-18T06:48:25;-1.90;99.90
73586;DHT22;61865;50.232;18.614;2022-12-18T06:50:47;-1.90;99.90
73586;DHT22;61865;50.232;18.614;2022-12-18T06:53:09;-2.00;99.90
73586;DHT22;61865;50.232;18.614;2022-12-18T06:55:32;-2.00;99.90
73586;DHT22;61865;50.232;18.614;2022-12-18T06:57:54;-2.10;99.90
73586;DHT22;61865;50.232;18.614;2022-12-18T07:00:16;-2.10;99.90
73586;DHT22;61865;50.232;18.614;2022-12-18T07:02:38;-2.00;99.90
73586;DHT22;61865;50.232;18.614;2022-12-18T07:05:01;-2.00;99.90
73586;DHT22;61865;50.232;18.614;2022-12-18T07:07:23;-2.10;99.90
73586;DHT22;61865;50.232;18.614;2022-12-18T07:09:45;-2.10;99.90
73586;DHT22;61865;50.232;18.614;2022-12-18T07:12:08;-2.00;99.90
73586;DHT22;61865;50.232;18.614;2022-12-18T07:14:30;-1.90;99.90
73586;DHT22;61865;50.232;18.614;2022-12-18T07:16:51;-2.00;99.90
73586;DHT22;61865;50.232;18.614;2022-12-18T07:19:13;-1.80;99.90
73586;DHT22;61865;50.232;18.614;2022-12-18T07:21:35;-1.60;99.90
73586;DHT22;61865;50.232;18.614;2022-12-18T07:23:57;-1.60;99.90
73586;DHT22;61865;50.232;18.614;2022-12-18T07:26:21;-1.40;99.90
73586;DHT22;61865;50.232;18.614;2022-12-18T07:28:44;-1.20;99.90
73586;DHT22;61865;50.232;18.614;2022-12-18T07:31:08;-1.10;99.90
73586;DHT22;61865;50.232;18.614;2022-12-18T07:33:30;-1.10;99.90
73586;DHT22;61865;50.232;18.614;2022-12-18T07:35:53;-1.00;99.90
73586;DHT22;61865;50.232;18.614;2022-12-18T07:38:14;-1.10;99.90
73586;DHT22;61865;50.232;18.614;2022-12-18T07:40:36;-1.10;99.90
73586;DHT22;61865;50.232;18.614;2022-12-18T07:42:58;-1.10;99.90
73586;DHT22;61865;50.232;18.614;2022-12-18T07:45:21;-1.00;99.90
73586;DHT22;61865;50.232;18.614;2022-12-18T07:47:43;-1.00;99.90
73586;DHT22;61865;50.232;18.614;2022-12-18T07:50:06;-1.00;99.90
73586;DHT22;61865;50.232;18.614;2022-12-18T07:52:28;-1.00;99.90
73586;DHT22;61865;50.232;18.614;2022-12-18T07:54:50;-1.10;99.90
73586;DHT22;61865;50.232;18.614;2022-12-18T07:57:11;-1.00;99.90
73586;DHT22;61865;50.232;18.614;2022-12-18T07:59:33;-1.20;99.90
73586;DHT22;61865;50.232;18.614;2022-12-18T08:01:56;-1.20;99.90
73586;DHT22;61865;50.232;18.614;2022-12-18T08:04:19;-1.50;99.90
73586;DHT22;61865;50.232;18.614;2022-12-18T08:06:40;-1.80;99.90
73586;DHT22;61865;50.232;18.614;2022-12-18T08:09:02;-2.00;99.90
73586;DHT22;61865;50.232;18.614;2022-12-18T08:11:26;-2.00;99.90
73586;DHT22;61865;50.232;18.614;2022-12-18T08:13:48;-1.90;99.90
73586;DHT22;61865;50.232;18.614;2022-12-18T08:16:10;-1.70;99.90
73586;DHT22;61865;50.232;18.614;2022-12-18T08:18:34;-1.50;99.90
73586;DHT22;61865;50.232;18.614;2022-12-18T08:20:56;-1.40;99.90
73586;DHT22;61865;50.232;18.614;2022-12-18T08:23:18;-1.30;99.90
73586;DHT22;61865;50.232;18.614;2022-12-18T08:25:39;-1.40;99.90
73586;DHT22;61865;50.232;18.614;2022-12-18T08:28:01;-1.40;99.90
73586;DHT22;61865;50.232;18.614;2022-12-18T08:30:23;-1.40;99.90
73586;DHT22;61865;50.232;18.614;2022-12-18T08:32:45;-1.30;99.90
73586;DHT22;61865;50.232;18.614;2022-12-18T08:35:09;-1.40;99.90
73586;DHT22;61865;50.232;18.614;2022-12-18T08:37:32;-1.40;99.90
73586;DHT22;61865;50.232;18.614;2022-12-18T08:39:54;-1.30;99.90
73586;DHT22;61865;50.232;18.614;2022-12-18T08:42:16;-1.30;99.90
73586;DHT22;61865;50.232;18.614;2022-12-18T08:44:55;-1.40;99.90
73586;DHT22;61865;50.232;18.614;2022-12-18T08:47:17;-1.40;99.90
73586;DHT22;61865;50.232;18.614;2022-12-18T08:49:39;-1.40;99.90
73586;DHT22;61865;50.232;18.614;2022-12-18T08:52:03;-1.50;99.90
73586;DHT22;61865;50.232;18.614;2022-12-18T08:54:25;-1.50;99.90
73586;DHT22;61865;50.232;18.614;2022-12-18T08:56:47;-1.50;99.90
73586;DHT22;61865;50.232;18.614;2022-12-18T08:59:10;-1.40;99.90
73586;DHT22;61865;50.232;18.614;2022-12-18T09:01:32;-1.40;99.90
73586;DHT22;61865;50.232;18.614;2022-12-18T09:03:53;-1.40;99.90
73586;DHT22;61865;50.232;18.614;2022-12-18T09:06:16;-1.40;99.90
73586;DHT22;61865;50.232;18.614;2022-12-18T09:08:40;-1.30;99.90
73586;DHT22;61865;50.232;18.614;2022-12-18T09:11:02;-1.40;99.90
73586;DHT22;61865;50.232;18.614;2022-12-18T09:13:23;-1.40;99.90
73586;DHT22;61865;50.232;18.614;2022-12-18T09:15:55;-1.40;99.90
73586;DHT22;61865;50.232;18.614;2022-12-18T09:18:18;-1.40;99.90
73586;DHT22;61865;50.232;18.614;2022-12-18T09:20:41;-1.40;99.90
73586;DHT22;61865;50.232;18.614;2022-12-18T09:23:03;-1.40;99.90
73586;DHT22;61865;50.232;18.614;2022-12-18T09:25:26;-1.50;99.90
73586;DHT22;61865;50.232;18.614;2022-12-18T09:27:52;-1.60;99.90
73586;DHT22;61865;50.232;18.614;2022-12-18T09:30:14;-1.60;99.90
73586;DHT22;61865;50.232;18.614;2022-12-18T09:32:35;-1.70;99.90
73586;DHT22;61865;50.232;18.614;2022-12-18T09:34:57;-1.60;99.90
73586;DHT22;61865;50.232;18.614;2022-12-18T09:37:20;-1.60;99.90
73586;DHT22;61865;50.232;18.614;2022-12-18T09:39:42;-1.50;99.90
73586;DHT22;61865;50.232;18.614;2022-12-18T09:42:05;-1.40;99.90
73586;DHT22;61865;50.232;18.614;2022-12-18T09:44:30;-1.40;99.90
73586;DHT22;61865;50.232;18.614;2022-12-18T09:47:04;-1.40;99.90
73586;DHT22;61865;50.232;18.614;2022-12-18T09:49:30;-1.40;99.90
73586;DHT22;61865;50.232;18.614;2022-12-18T09:51:55;-1.40;99.90
73586;DHT22;61865;50.232;18.614;2022-12-18T09:54:21;-1.50;99.90
73586;DHT22;61865;50.232;18.614;2022-12-18T09:56:44;-1.60;99.90
73586;DHT22;61865;50.232;18.614;2022-12-18T09:59:18;-1.70;99.90
73586;DHT22;61865;50.232;18.614;2022-12-18T10:01:40;-1.60;99.90
73586;DHT22;61865;50.232;18.614;2022-12-18T10:04:02;-1.60;99.90
73586;DHT22;61865;50.232;18.614;2022-12-18T10:06:29;-1.60;99.90
73586;DHT22;61865;50.232;18.614;2022-12-18T10:08:59;-1.50;99.90
73586;DHT22;61865;50.232;18.614;2022-12-18T10:11:32;-1.50;99.90
73586;DHT22;61865;50.232;18.614;2022-12-18T10:13:58;-1.30;99.90
73586;DHT22;61865;50.232;18.614;2022-12-18T10:16:32;-1.40;99.90
73586;DHT22;61865;50.232;18.614;2022-12-18T10:19:11;-1.40;99.90
73586;DHT22;61865;50.232;18.614;2022-12-18T10:21:43;-1.50;99.90
73586;DHT22;61865;50.232;18.614;2022-12-18T10:24:14;-1.50;99.90
73586;DHT22;61865;50.232;18.614;2022-12-18T10:26:39;-1.50;99.90
73586;DHT22;61865;50.232;18.614;2022-12-18T10:29:07;-1.60;99.90
73586;DHT22;61865;50.232;18.614;2022-12-18T10:31:31;-1.60;99.90
73586;DHT22;61865;50.232;18.614;2022-12-18T10:33:53;-1.60;99.90
73586;DHT22;61865;50.232;18.614;2022-12-18T10:36:16;-1.50;99.90
73586;DHT22;61865;50.232;18.614;2022-12-18T10:38:38;-1.50;99.90
73586;DHT22;61865;50.232;18.614;2022-12-18T10:41:02;-1.50;99.90
73586;DHT22;61865;50.232;18.614;2022-12-18T10:43:26;-1.50;99.90
73586;DHT22;61865;50.232;18.614;2022-12-18T10:46:03;-1.50;99.90
73586;DHT22;61865;50.232;18.614;2022-12-18T10:48:29;-1.50;99.90
73586;DHT22;61865;50.232;18.614;2022-12-18T10:50:52;-1.40;99.90
73586;DHT22;61865;50.232;18.614;2022-12-18T10:53:19;-1.40;99.90
73586;DHT22;61865;50.232;18.614;2022-12-18T10:55:44;-1.40;99.90
73586;DHT22;61865;50.232;18.614;2022-12-18T10:58:18;-1.40;99.90
73586;DHT22;61865;50.232;18.614;2022-12-18T11:00:42;-1.30;99.90
73586;DHT22;61865;50.232;18.614;2022-12-18T11:03:32;-1.30;99.90
73586;DHT22;61865;50.232;18.614;2022-12-18T11:06:02;-1.30;99.90
73586;DHT22;61865;50.232;18.614;2022-12-18T11:08:24;-1.30;99.90
73586;DHT22;61865;50.232;18.614;2022-12-18T11:10:46;-1.30;99.90
73586;DHT22;61865;50.232;18.614;2022-12-18T11:13:16;-1.30;99.90
73586;DHT22;61865;50.232;18.614;2022-12-18T11:15:40;-1.40;99.90
73586;DHT22;61865;50.232;18.614;2022-12-18T11:18:02;-1.70;99.90
73586;DHT22;61865;50.232;18.614;2022-12-18T11:20:31;-1.60;99.90
73586;DHT22;61865;50.232;18.614;2022-12-18T11:22:58;-1.50;99.90
73586;DHT22;61865;50.232;18.614;2022-12-18T11:25:21;-1.70;99.90
73586;DHT22;61865;50.232;18.614;2022-12-18T11:27:48;-1.90;99.90
73586;DHT22;61865;50.232;18.614;2022-12-18T11:30:21;-1.90;99.90
73586;DHT22;61865;50.232;18.614;2022-12-18T11:32:45;-2.10;99.90
73586;DHT22;61865;50.232;18.614;2022-12-18T11:35:15;-2.40;99.90
73586;DHT22;61865;50.232;18.614;2022-12-18T11:37:43;-2.60;99.90
73586;DHT22;61865;50.232;18.614;2022-12-18T11:40:11;-2.70;99.90
73586;DHT22;61865;50.232;18.614;2022-12-18T11:42:38;-2.80;99.90
73586;DHT22;61865;50.232;18.614;2022-12-18T11:45:17;-2.90;99.90
73586;DHT22;61865;50.232;18.614;2022-12-18T11:47:45;-2.90;99.90
73586;DHT22;61865;50.232;18.614;2022-12-18T11:50:14;-2.90;99.90
73586;DHT22;61865;50.232;18.614;2022-12-18T11:52:40;-3.00;99.90
73586;DHT22;61865;50.232;18.614;2022-12-18T11:55:11;-3.10;99.90
73586;DHT22;61865;50.232;18.614;2022-12-18T11:57:37;-3.10;99.90
73586;DHT22;61865;50.232;18.614;2022-12-18T12:00:07;-3.20;99.90
73586;DHT22;61865;50.232;18.614;2022-12-18T12:02:55;-3.20;99.90
73586;DHT22;61865;50.232;18.614;2022-12-18T12:05:28;-3.20;99.90
73586;DHT22;61865;50.232;18.614;2022-12-18T12:08:00;-3.20;99.90
73586;DHT22;61865;50.232;18.614;2022-12-18T12:10:34;-3.30;99.90
73586;DHT22;61865;50.232;18.614;2022-12-18T12:13:10;-3.30;99.90
73586;DHT22;61865;50.232;18.614;2022-12-18T12:15:39;-3.30;99.90
73586;DHT22;61865;50.232;18.614;2022-12-18T12:18:09;-3.20;99.90
73586;DHT22;61865;50.232;18.614;2022-12-18T12:20:37;-3.10;99.90
73586;DHT22;61865;50.232;18.614;2022-12-18T12:23:12;-2.90;99.90
73586;DHT22;61865;50.232;18.614;2022-12-18T12:25:39;-2.80;99.90
73586;DHT22;61865;50.232;18.614;2022-12-18T12:28:12;-2.70;99.90
73586;DHT22;61865;50.232;18.614;2022-12-18T12:30:43;-2.60;99.90
73586;DHT22;61865;50.232;18.614;2022-12-18T12:33:20;-2.50;99.90
73586;DHT22;61865;50.232;18.614;2022-12-18T12:35:51;-2.40;99.90
73586;DHT22;61865;50.232;18.614;2022-12-18T12:38:19;-2.30;99.90
73586;DHT22;61865;50.232;18.614;2022-12-18T12:40:45;-2.20;99.90
73586;DHT22;61865;50.232;18.614;2022-12-18T12:43:22;-2.20;99.90
73586;DHT22;61865;50.232;18.614;2022-12-18T12:45:47;-2.30;99.90
73586;DHT22;61865;50.232;18.614;2022-12-18T12:48:16;-2.40;99.90
73586;DHT22;61865;50.232;18.614;2022-12-18T12:50:39;-2.40;99.90
73586;DHT22;61865;50.232;18.614;2022-12-18T12:53:05;-2.50;99.90
73586;DHT22;61865;50.232;18.614;2022-12-18T12:55:30;-2.60;99.90
73586;DHT22;61865;50.232;18.614;2022-12-18T12:57:59;-2.60;99.90
73586;DHT22;61865;50.232;18.614;2022-12-18T13:00:22;-2.70;99.90
73586;DHT22;61865;50.232;18.614;2022-12-18T13:02:51;-2.60;99.90
73586;DHT22;61865;50.232;18.614;2022-12-18T13:05:20;-2.50;99.90
73586;DHT22;61865;50.232;18.614;2022-12-18T13:07:49;-2.50;99.90
73586;DHT22;61865;50.232;18.614;2022-12-18T13:10:24;-2.50;99.90
73586;DHT22;61865;50.232;18.614;2022-12-18T13:12:55;-2.40;99.90
73586;DHT22;61865;50.232;18.614;2022-12-18T13:15:21;-2.30;99.90
73586;DHT22;61865;50.232;18.614;2022-12-18T13:17:44;-2.30;99.90
73586;DHT22;61865;50.232;18.614;2022-12-18T13:20:08;-2.20;99.90
73586;DHT22;61865;50.232;18.614;2022-12-18T13:22:35;-2.10;99.90
73586;DHT22;61865;50.232;18.614;2022-12-18T13:24:57;-2.10;99.90
73586;DHT22;61865;50.232;18.614;2022-12-18T13:27:45;-2.10;99.90
73586;DHT22;61865;50.232;18.614;2022-12-18T13:36:08;-2.10;99.90
73586;DHT22;61865;50.232;18.614;2022-12-18T13:38:34;-2.00;99.90
73586;DHT22;61865;50.232;18.614;2022-12-18T13:40:57;-1.90;99.90
73586;DHT22;61865;50.232;18.614;2022-12-18T13:43:36;-1.80;99.90
73586;DHT22;61865;50.232;18.614;2022-12-18T13:46:19;-1.90;99.90
73586;DHT22;61865;50.232;18.614;2022-12-18T13:48:41;-1.90;99.90
73586;DHT22;61865;50.232;18.614;2022-12-18T13:51:17;-2.00;99.90
73586;DHT22;61865;50.232;18.614;2022-12-18T13:53:43;-2.30;99.90
73586;DHT22;61865;50.232;18.614;2022-12-18T13:56:06;-2.20;99.90
73586;DHT22;61865;50.232;18.614;2022-12-18T13:58:28;-2.20;99.90
73586;DHT22;61865;50.232;18.614;2022-12-18T14:00:50;-2.20;99.90
73586;DHT22;61865;50.232;18.614;2022-12-18T14:03:18;-2.30;99.90
73586;DHT22;61865;50.232;18.614;2022-12-18T14:05:40;-2.30;99.90
73586;DHT22;61865;50.232;18.614;2022-12-18T14:08:11;-2.50;99.90
73586;DHT22;61865;50.232;18.614;2022-12-18T14:10:35;-2.80;99.90
73586;DHT22;61865;50.232;18.614;2022-12-18T14:13:05;-2.80;99.90
73586;DHT22;61865;50.232;18.614;2022-12-18T14:15:33;-2.70;99.90
73586;DHT22;61865;50.232;18.614;2022-12-18T14:17:58;-2.70;99.90
73586;DHT22;61865;50.232;18.614;2022-12-18T14:20:21;-2.70;99.90
73586;DHT22;61865;50.232;18.614;2022-12-18T14:22:43;-2.70;99.90
73586;DHT22;61865;50.232;18.614;2022-12-18T14:25:17;-2.90;99.90
73586;DHT22;61865;50.232;18.614;2022-12-18T14:27:42;-3.20;99.90
73586;DHT22;61865;50.232;18.614;2022-12-18T14:30:24;-3.30;99.90
73586;DHT22;61865;50.232;18.614;2022-12-18T14:32:59;-3.30;99.90
73586;DHT22;61865;50.232;18.614;2022-12-18T14:35:21;-3.40;99.90
73586;DHT22;61865;50.232;18.614;2022-12-18T14:37:43;-3.60;99.90
73586;DHT22;61865;50.232;18.614;2022-12-18T14:40:11;-3.80;99.90
73586;DHT22;61865;50.232;18.614;2022-12-18T14:42:35;-3.90;99.90
73586;DHT22;61865;50.232;18.614;2022-12-18T14:45:33;-4.10;99.90
73586;DHT22;61865;50.232;18.614;2022-12-18T14:47:55;-4.40;99.90
73586;DHT22;61865;50.232;18.614;2022-12-18T14:50:17;-4.60;99.90
73586;DHT22;61865;50.232;18.614;2022-12-18T14:52:39;-4.30;99.90
73586;DHT22;61865;50.232;18.614;2022-12-18T14:55:01;-4.10;99.90
73586;DHT22;61865;50.232;18.614;2022-12-18T14:57:24;-3.90;99.90
73586;DHT22;61865;50.232;18.614;2022-12-18T14:59:49;-3.80;99.90
73586;DHT22;61865;50.232;18.614;2022-12-18T15:02:19;-3.90;99.90
73586;DHT22;61865;50.232;18.614;2022-12-18T15:04:42;-4.00;99.90
73586;DHT22;61865;50.232;18.614;2022-12-18T15:07:11;-4.00;99.90
73586;DHT22;61865;50.232;18.614;2022-12-18T15:09:34;-3.90;99.90
73586;DHT22;61865;50.232;18.614;2022-12-18T15:11:57;-3.80;99.90